createdAt,value
2018-11-05T04:29:11.245Z,15.87
2018-11-05T04:31:41.577Z,22.03
2018-11-05T04:34:10.966Z,20.40
2018-11-05T04:36:40.332Z,18.30
2018-11-05T04:39:12.987Z,20.73
2018-11-05T04:41:41.480Z,22.33
2018-11-05T04:44:12.848Z,19.63
2018-11-05T04:46:41.662Z,19.73
2018-11-05T04:49:11.251Z,22.83
2018-11-05T04:51:39.897Z,22.23
2018-11-05T04:54:08.476Z,21.23
2018-11-05T04:56:37.404Z,23.47
2018-11-05T04:59:07.400Z,22.10
2018-11-05T05:01:35.879Z,21.73
2018-11-05T05:04:04.545Z,21.07
2018-11-05T05:06:33.203Z,22.00
2018-11-05T05:09:01.752Z,19.93
2018-11-05T05:11:30.289Z,24.70
2018-11-05T05:13:58.740Z,21.17
2018-11-05T05:16:27.198Z,20.10
2018-11-05T05:18:55.824Z,22.60
2018-11-05T05:21:24.431Z,21.63
2018-11-05T05:23:53.500Z,27.00
2018-11-05T05:26:21.983Z,20.90
2018-11-05T05:28:50.592Z,21.90
2018-11-05T05:31:19.071Z,23.83
2018-11-05T05:33:47.737Z,24.63
2018-11-05T05:36:16.204Z,19.73
2018-11-05T05:38:45.802Z,22.43
2018-11-05T05:41:14.360Z,25.37
2018-11-05T05:43:43.205Z,22.93
2018-11-05T05:46:12.013Z,21.33
2018-11-05T05:48:40.592Z,18.97
2018-11-05T05:51:09.089Z,22.53
2018-11-05T05:53:37.551Z,21.80
2018-11-05T05:56:06.078Z,22.53
2018-11-05T05:58:34.560Z,23.50
2018-11-05T06:01:03.085Z,21.13
2018-11-05T06:03:31.554Z,19.47
2018-11-05T06:06:00.084Z,22.57
2018-11-05T06:08:28.512Z,19.40
2018-11-05T06:10:56.988Z,21.63
2018-11-05T06:13:25.464Z,26.10
2018-11-05T06:15:54.057Z,20.47
2018-11-05T06:18:22.636Z,24.07
2018-11-05T06:20:51.111Z,18.60
2018-11-05T06:23:19.620Z,20.33
2018-11-05T06:25:48.082Z,23.10
2018-11-05T06:28:16.552Z,20.57
2018-11-05T06:30:45.584Z,20.67
2018-11-05T06:33:14.318Z,23.73
2018-11-05T06:35:42.812Z,23.03
2018-11-05T06:38:11.291Z,19.13
2018-11-05T06:40:39.780Z,24.93
2018-11-05T06:43:08.277Z,22.43
2018-11-05T06:45:36.825Z,23.93
2018-11-05T06:48:05.354Z,29.07
2018-11-05T06:50:33.863Z,19.90
2018-11-05T06:53:02.402Z,28.47
2018-11-05T06:55:30.855Z,20.93
2018-11-05T06:57:59.329Z,23.27
2018-11-05T07:00:27.763Z,23.83
2018-11-05T07:02:56.232Z,24.10
2018-11-05T07:05:24.713Z,22.37
2018-11-05T07:07:53.182Z,20.00
2018-11-05T07:10:21.630Z,20.70
2018-11-05T07:12:50.108Z,27.40
2018-11-05T07:15:19.445Z,23.93
2018-11-05T07:17:48.827Z,21.73
2018-11-05T07:20:18.625Z,23.47
2018-11-05T07:22:48.131Z,23.10
2018-11-05T07:25:16.752Z,23.00
2018-11-05T07:27:45.316Z,23.80
2018-11-05T07:30:16.099Z,21.93
2018-11-05T07:32:44.756Z,19.73
2018-11-05T07:35:14.582Z,21.00
2018-11-05T07:37:43.368Z,21.80
2018-11-05T07:40:13.570Z,21.23
2018-11-05T07:42:42.174Z,22.57
2018-11-05T07:45:13.808Z,20.23
2018-11-05T07:47:43.208Z,21.90
2018-11-05T07:50:13.195Z,22.20
2018-11-05T07:52:41.667Z,21.67
2018-11-05T07:55:11.687Z,24.40
2018-11-05T07:57:41.460Z,20.53
2018-11-05T08:00:19.441Z,21.67
2018-11-05T08:02:48.950Z,19.97
2018-11-05T08:05:18.457Z,22.30
2018-11-05T08:07:47.266Z,22.53
2018-11-05T08:10:15.755Z,22.07
2018-11-05T08:12:44.380Z,20.03
2018-11-05T08:15:15.679Z,18.87
2018-11-05T08:17:45.467Z,22.13
2018-11-05T08:20:13.979Z,19.63
2018-11-05T08:22:42.444Z,26.23
2018-11-05T08:25:12.004Z,17.87
2018-11-05T08:27:40.444Z,22.47
2018-11-05T08:30:14.057Z,20.33
2018-11-05T08:32:42.592Z,18.83
2018-11-05T08:35:11.934Z,26.50
2018-11-05T08:37:40.922Z,22.00
2018-11-05T08:40:15.125Z,25.07
2018-11-05T08:42:44.176Z,22.47
2018-11-05T08:45:13.834Z,20.77
2018-11-05T08:47:48.836Z,30.87
2018-11-05T08:50:26.056Z,30.13
2018-11-05T08:52:54.613Z,34.23
2018-11-05T08:55:24.504Z,26.57
2018-11-05T08:58:01.102Z,28.17
2018-11-05T09:00:41.677Z,26.20
2018-11-05T09:03:16.983Z,27.20
2018-11-05T09:05:46.709Z,26.07
2018-11-05T09:08:22.264Z,24.43
2018-11-05T09:11:00.564Z,27.60
2018-11-05T09:13:29.697Z,26.97
2018-11-05T09:15:58.236Z,22.37
2018-11-05T09:18:26.686Z,25.23
2018-11-05T09:20:55.275Z,22.10
2018-11-05T09:23:23.663Z,29.53
2018-11-05T09:25:52.104Z,22.67
2018-11-05T09:28:20.561Z,21.80
2018-11-05T09:30:49.033Z,21.50
2018-11-05T09:33:17.467Z,26.43
2018-11-05T09:35:45.945Z,21.57
2018-11-05T09:38:14.399Z,28.17
2018-11-05T09:40:42.855Z,24.40
2018-11-05T09:43:11.312Z,23.57
2018-11-05T09:45:39.969Z,29.27
2018-11-05T09:48:08.408Z,24.43
2018-11-05T09:50:36.908Z,26.13
2018-11-05T09:53:06.280Z,24.20
2018-11-05T09:55:34.839Z,26.50
2018-11-05T09:58:04.060Z,22.77
2018-11-05T10:00:32.588Z,28.50
2018-11-05T10:03:06.182Z,24.30
2018-11-05T10:05:34.547Z,23.43
2018-11-05T10:08:03.016Z,26.00
2018-11-05T10:10:31.589Z,24.50
2018-11-05T10:12:59.952Z,25.90
2018-11-05T10:15:29.349Z,25.73
2018-11-05T10:17:57.831Z,26.23
2018-11-05T10:20:26.300Z,26.87
2018-11-05T10:22:55.216Z,27.10
2018-11-05T10:25:23.634Z,23.83
2018-11-05T10:27:52.580Z,24.60
2018-11-05T10:30:22.480Z,25.00
2018-11-05T10:32:51.485Z,24.77
2018-11-05T10:35:19.939Z,23.90
2018-11-05T10:37:48.424Z,23.63
2018-11-05T10:40:18.623Z,22.93
2018-11-05T10:42:48.284Z,27.30
2018-11-05T10:45:18.282Z,22.20
2018-11-05T10:47:46.750Z,25.13
2018-11-05T10:50:16.433Z,24.03
2018-11-05T10:52:47.330Z,22.63
2018-11-05T10:55:15.868Z,22.37
2018-11-05T10:57:45.025Z,25.47
2018-11-05T11:00:26.565Z,26.77
2018-11-05T11:03:00.555Z,26.37
2018-11-05T11:05:29.875Z,25.63
2018-11-05T11:07:59.360Z,23.87
2018-11-05T11:10:28.718Z,23.03
2018-11-05T11:12:57.920Z,22.67
2018-11-05T11:15:26.482Z,25.97
2018-11-05T11:17:55.144Z,23.33
2018-11-05T11:20:23.566Z,25.63
2018-11-05T11:22:51.996Z,26.97
2018-11-05T11:25:20.480Z,24.97
2018-11-05T11:27:49.044Z,23.10
2018-11-05T11:30:17.789Z,22.93
2018-11-05T11:32:46.949Z,19.67
2018-11-05T11:35:15.444Z,22.53
2018-11-05T11:37:43.953Z,21.20
2018-11-05T11:40:15.908Z,25.50
2018-11-05T11:42:45.480Z,24.00
2018-11-05T11:45:14.683Z,20.90
2018-11-05T11:47:43.149Z,20.93
2018-11-05T11:50:12.883Z,24.50
2018-11-05T11:52:41.458Z,24.40
2018-11-05T11:55:11.910Z,26.07
2018-11-05T11:57:40.784Z,23.33
2018-11-05T12:00:14.545Z,26.30
2018-11-05T12:02:43.036Z,21.67
2018-11-05T12:05:11.617Z,23.60
2018-11-05T12:07:39.927Z,22.53
2018-11-05T12:10:11.357Z,26.33
2018-11-05T12:12:40.402Z,29.00
2018-11-05T12:15:09.880Z,22.73
2018-11-05T12:17:38.611Z,29.83
2018-11-05T12:20:10.567Z,21.07
2018-11-05T12:22:39.083Z,24.43
2018-11-05T12:25:08.005Z,22.43
2018-11-05T12:27:36.353Z,25.37
2018-11-05T12:30:05.808Z,22.93
2018-11-05T12:32:34.298Z,26.57
2018-11-05T12:35:02.735Z,23.23
2018-11-05T12:37:31.263Z,22.50
2018-11-05T12:39:59.876Z,21.17
2018-11-05T12:42:28.962Z,24.30
2018-11-05T12:44:57.548Z,18.37
2018-11-05T12:47:26.009Z,25.67
2018-11-05T12:49:54.542Z,21.13
2018-11-05T12:52:23.016Z,25.07
2018-11-05T12:54:51.502Z,22.17
2018-11-05T12:57:20.409Z,25.93
2018-11-05T12:59:48.855Z,23.80
2018-11-05T13:02:17.401Z,26.17
2018-11-05T13:04:45.945Z,27.63
2018-11-05T13:07:14.441Z,31.63
2018-11-05T13:09:42.923Z,31.10
2018-11-05T13:12:11.397Z,34.03
2018-11-05T13:14:39.846Z,25.10
2018-11-05T13:17:08.391Z,22.33
2018-11-05T13:19:36.898Z,32.17
2018-11-05T13:22:06.194Z,24.10
2018-11-05T13:24:34.600Z,27.97
2018-11-05T13:27:03.032Z,23.33
2018-11-05T13:29:31.519Z,20.57
2018-11-05T13:32:00.082Z,22.13
2018-11-05T13:34:28.516Z,21.53
2018-11-05T13:36:57.319Z,23.53
2018-11-05T13:39:25.641Z,27.17
2018-11-05T13:41:54.105Z,20.00
2018-11-05T13:44:22.574Z,22.50
2018-11-05T13:46:51.503Z,22.63
2018-11-05T13:49:19.768Z,22.40
2018-11-05T13:51:48.159Z,22.60
2018-11-05T13:54:16.683Z,26.40
2018-11-05T13:56:45.137Z,23.27
2018-11-05T13:59:13.575Z,30.83
2018-11-05T14:01:42.200Z,25.23
2018-11-05T14:04:10.748Z,22.17
2018-11-05T14:06:39.164Z,22.57
2018-11-05T14:09:08.843Z,25.90
2018-11-05T14:11:37.350Z,25.93
2018-11-05T14:14:06.179Z,29.17
2018-11-05T14:16:34.616Z,25.50
2018-11-05T14:19:03.363Z,24.87
2018-11-05T14:21:31.934Z,23.33
2018-11-05T14:24:00.393Z,19.90
2018-11-05T14:26:28.805Z,24.57
2018-11-05T14:28:58.377Z,25.57
2018-11-05T14:31:26.577Z,24.93
2018-11-05T14:33:55.271Z,26.33
2018-11-05T14:36:23.982Z,24.27
2018-11-05T14:38:52.430Z,23.87
2018-11-05T14:41:20.860Z,27.83
2018-11-05T14:43:49.305Z,30.47
2018-11-05T14:46:17.786Z,23.20
2018-11-05T14:48:46.316Z,24.63
2018-11-05T14:51:14.794Z,22.13
2018-11-05T14:53:43.277Z,23.50
2018-11-05T14:56:11.732Z,27.10
2018-11-05T14:58:40.193Z,27.50
2018-11-05T15:01:08.710Z,25.70
2018-11-05T15:03:37.191Z,26.57
2018-11-05T15:06:06.228Z,29.60
2018-11-05T15:08:34.694Z,25.63
2018-11-05T15:11:03.212Z,20.93
2018-11-05T15:13:31.765Z,25.37
2018-11-05T15:16:00.283Z,31.03
2018-11-05T15:18:28.952Z,30.83
2018-11-05T15:20:57.292Z,27.87
2018-11-05T15:23:27.792Z,23.20
2018-11-05T15:25:56.475Z,23.87
2018-11-05T15:28:25.908Z,27.17
2018-11-05T15:30:54.437Z,31.23
2018-11-05T15:33:22.958Z,26.57
2018-11-05T15:35:51.394Z,25.63
2018-11-05T15:38:19.843Z,30.17
2018-11-05T15:40:51.703Z,22.47
2018-11-05T15:43:20.137Z,24.97
2018-11-05T15:45:48.571Z,25.83
2018-11-05T15:48:17.000Z,26.43
2018-11-05T15:50:45.478Z,28.03
2018-11-05T15:53:14.283Z,30.53
2018-11-05T15:55:42.376Z,25.70
2018-11-05T15:58:10.857Z,31.77
2018-11-05T16:00:40.232Z,32.77
2018-11-05T16:03:08.770Z,31.97
2018-11-05T16:05:38.613Z,27.13
2018-11-05T16:08:07.211Z,37.43
2018-11-05T16:10:35.660Z,23.40
2018-11-05T16:13:04.157Z,28.93
2018-11-05T16:15:32.595Z,35.83
2018-11-05T16:18:01.105Z,28.03
2018-11-05T16:20:29.536Z,24.50
2018-11-05T16:22:58.021Z,30.93
2018-11-05T16:25:26.476Z,26.00
2018-11-05T16:27:55.550Z,30.60
2018-11-05T16:30:24.043Z,29.73
2018-11-05T16:32:52.601Z,28.20
2018-11-05T16:35:21.177Z,27.00
2018-11-05T16:37:49.615Z,32.53
2018-11-05T16:40:19.422Z,30.70
2018-11-05T16:42:49.148Z,28.57
2018-11-05T16:45:17.643Z,29.27
2018-11-05T16:47:46.356Z,24.40
2018-11-05T16:53:01.564Z,33.77
2018-11-05T16:55:30.577Z,28.67
2018-11-05T16:57:59.445Z,30.77
2018-11-05T17:00:28.751Z,39.83
2018-11-05T17:02:57.721Z,37.80
2018-11-05T17:05:27.049Z,50.67
2018-11-05T17:07:55.938Z,36.20
2018-11-05T17:10:24.876Z,31.77
2018-11-05T17:12:54.027Z,46.47
2018-11-05T17:15:23.227Z,45.27
2018-11-05T17:17:53.107Z,32.50
2018-11-05T17:20:21.972Z,30.37
2018-11-05T17:22:50.932Z,35.17
2018-11-05T17:28:04.342Z,28.87
2018-11-05T17:30:33.370Z,28.73
2018-11-05T17:33:02.235Z,34.87
2018-11-05T17:35:31.380Z,31.70
2018-11-05T17:38:00.836Z,28.47
2018-11-05T17:40:30.327Z,32.40
2018-11-05T17:42:59.177Z,27.90
2018-11-05T17:45:28.259Z,27.83
2018-11-05T17:48:03.641Z,36.67
2018-11-05T17:50:32.897Z,39.60
2018-11-05T17:53:02.090Z,29.50
2018-11-05T17:55:31.085Z,32.03
2018-11-05T17:58:00.610Z,29.60
2018-11-05T18:00:29.532Z,29.70
2018-11-05T18:05:55.091Z,36.33
2018-11-05T18:08:23.987Z,29.17
2018-11-05T18:10:52.903Z,34.50
2018-11-05T18:13:21.761Z,27.30
2018-11-05T18:15:50.854Z,38.40
2018-11-05T18:18:19.726Z,31.67
2018-11-05T18:20:49.293Z,27.10
2018-11-05T18:23:18.210Z,29.27
2018-11-05T18:25:47.311Z,31.67
2018-11-05T18:28:16.163Z,41.37
2018-11-05T18:30:45.209Z,32.83
2018-11-05T18:33:14.133Z,29.57
2018-11-05T18:35:43.033Z,31.00
2018-11-05T18:38:12.072Z,30.57
2018-11-05T18:40:40.775Z,35.10
2018-11-05T18:43:09.735Z,32.90
2018-11-05T18:45:38.549Z,31.40
2018-11-05T18:48:07.685Z,30.50
2018-11-05T18:50:36.542Z,29.00
2018-11-05T18:53:05.841Z,28.30
2018-11-05T18:55:34.635Z,35.97
2018-11-05T18:58:03.419Z,28.97
2018-11-05T19:00:32.287Z,30.00
2018-11-05T19:03:01.225Z,27.70
2018-11-05T19:05:30.675Z,30.73
2018-11-05T19:07:59.456Z,31.20
2018-11-05T19:10:28.258Z,29.43
2018-11-05T19:12:57.075Z,32.87
2018-11-05T19:15:26.009Z,33.20
2018-11-05T19:17:54.920Z,32.43
2018-11-05T19:20:23.698Z,32.87
2018-11-05T19:22:52.899Z,36.50
2018-11-05T19:25:21.708Z,34.80
2018-11-05T19:27:50.576Z,34.70
2018-11-05T19:30:25.111Z,32.63
2018-11-05T19:32:53.981Z,43.23
2018-11-05T19:35:23.011Z,31.07
2018-11-05T19:37:51.998Z,34.00
2018-11-05T19:40:21.120Z,32.87
2018-11-05T19:42:50.663Z,35.40
2018-11-05T19:45:22.024Z,35.27
2018-11-05T19:47:51.216Z,37.10
2018-11-05T19:50:21.532Z,30.13
2018-11-05T19:52:51.387Z,32.87
2018-11-05T19:55:20.745Z,36.83
2018-11-05T19:57:50.388Z,36.50
2018-11-05T20:00:25.563Z,42.93
2018-11-05T20:02:55.102Z,40.57
2018-11-05T20:05:24.183Z,33.30
2018-11-05T20:07:53.713Z,39.30
2018-11-05T20:10:22.290Z,30.90
2018-11-05T20:12:50.893Z,39.63
2018-11-05T20:15:19.570Z,38.93
2018-11-05T20:17:48.894Z,34.07
2018-11-05T20:20:19.227Z,34.83
2018-11-05T20:22:47.808Z,36.97
2018-11-05T20:25:16.655Z,45.97
2018-11-05T20:27:45.360Z,38.80
2018-11-05T20:30:16.557Z,34.60
2018-11-05T20:32:46.278Z,37.40
2018-11-05T20:35:14.541Z,39.03
2018-11-05T20:37:43.075Z,32.20
2018-11-05T20:40:13.974Z,34.30
2018-11-05T20:42:43.580Z,31.30
2018-11-05T20:45:12.105Z,43.33
2018-11-05T20:47:40.775Z,40.83
2018-11-05T20:50:10.046Z,38.57
2018-11-05T20:52:40.191Z,32.57
2018-11-05T20:55:10.273Z,44.83
2018-11-05T20:57:39.371Z,40.73
2018-11-05T21:00:09.919Z,43.97
2018-11-05T21:02:39.882Z,42.33
2018-11-05T21:05:08.592Z,41.67
2018-11-05T21:07:43.515Z,39.40
2018-11-05T21:10:13.106Z,43.40
2018-11-05T21:12:42.628Z,45.43
2018-11-05T21:15:13.909Z,41.47
2018-11-05T21:17:43.524Z,44.37
2018-11-05T21:20:12.463Z,41.27
2018-11-05T21:22:41.282Z,40.70
2018-11-05T21:25:10.001Z,42.70
2018-11-05T21:27:38.687Z,44.20
2018-11-05T21:30:09.450Z,41.17
2018-11-05T21:32:38.460Z,42.30
2018-11-05T21:35:08.911Z,40.67
2018-11-05T21:37:50.880Z,37.27
2018-11-05T21:40:20.078Z,42.30
2018-11-05T21:42:48.560Z,40.47
2018-11-05T21:45:17.315Z,39.33
2018-11-05T21:47:46.206Z,45.50
2018-11-05T21:50:16.247Z,40.50
2018-11-05T21:52:45.491Z,38.13
2018-11-05T21:55:13.993Z,33.17
2018-11-05T21:57:45.036Z,38.87
2018-11-05T22:00:20.871Z,41.77
2018-11-05T22:02:54.532Z,37.30
2018-11-05T22:05:25.012Z,38.47
2018-11-05T22:07:59.962Z,41.83
2018-11-05T22:10:32.162Z,44.00
2018-11-05T22:13:38.627Z,42.37
2018-11-05T22:16:07.576Z,39.53
2018-11-05T22:18:36.169Z,39.73
2018-11-05T22:21:05.020Z,40.67
2018-11-05T22:23:33.597Z,45.63
2018-11-05T22:26:02.162Z,35.20
2018-11-05T22:28:31.023Z,38.80
2018-11-05T22:30:59.700Z,39.60
2018-11-05T22:33:28.253Z,36.80
2018-11-05T22:35:57.464Z,38.67
2018-11-05T22:38:25.988Z,39.70
2018-11-05T22:40:54.527Z,37.87
2018-11-05T22:43:30.976Z,41.17
2018-11-05T22:45:59.424Z,40.77
2018-11-05T22:48:28.047Z,44.23
2018-11-05T22:50:56.672Z,34.23
2018-11-05T22:53:26.377Z,41.07
2018-11-05T22:55:55.044Z,39.90
2018-11-05T22:58:23.578Z,34.00
2018-11-05T23:00:57.385Z,35.63
2018-11-05T23:03:29.896Z,36.30
2018-11-05T23:05:59.021Z,36.60
2018-11-05T23:08:27.668Z,36.10
2018-11-05T23:10:56.601Z,40.33
2018-11-05T23:13:25.131Z,42.83
2018-11-05T23:15:53.668Z,39.20
2018-11-05T23:18:22.192Z,41.47
2018-11-05T23:20:50.764Z,32.20
2018-11-05T23:23:21.129Z,46.10
2018-11-05T23:25:49.758Z,39.30
2018-11-05T23:28:18.852Z,40.73
2018-11-05T23:30:47.421Z,45.57
2018-11-05T23:33:17.245Z,45.00
2018-11-05T23:35:53.193Z,39.67
2018-11-05T23:38:22.197Z,42.43
2018-11-05T23:40:50.946Z,38.00
2018-11-05T23:43:20.279Z,43.70
2018-11-05T23:45:51.489Z,40.73
2018-11-05T23:48:20.200Z,36.97
2018-11-05T23:50:48.876Z,40.17
2018-11-05T23:53:17.452Z,41.13
2018-11-05T23:55:46.133Z,43.97
2018-11-05T23:58:14.792Z,39.27
